sensor_id;sensor_type;location;lat;lon;timestamp;pressure;altitude;pressure_sealevel;temperature;humidity
20628;BME280;10473;42.734;24.258;2023-07-30T00:00:26;91849.13;;;21.37;52.31
20628;BME280;10473;42.734;24.258;2023-07-30T00:02:53;91843.44;;;21.35;52.06
20628;BME280;10473;42.734;24.258;2023-07-30T00:05:21;91840.72;;;21.35;52.23
20628;BME280;10473;42.734;24.258;2023-07-30T00:07:49;91848.06;;;21.34;52.16
20628;BME280;10473;42.734;24.258;2023-07-30T00:10:16;91847.94;;;21.25;52.73
20628;BME280;10473;42.734;24.258;2023-07-30T00:12:45;91839.44;;;21.27;52.42
20628;BME280;10473;42.734;24.258;2023-07-30T00:15:14;91839.13;;;21.25;52.58
20628;BME280;10473;42.734;24.258;2023-07-30T00:17:41;91837.28;;;21.22;52.35
20628;BME280;10473;42.734;24.258;2023-07-30T00:20:09;91845.06;;;21.20;52.36
20628;BME280;10473;42.734;24.258;2023-07-30T00:22:37;91843.63;;;21.15;52.76
20628;BME280;10473;42.734;24.258;2023-07-30T00:25:05;91834.81;;;21.15;52.97
20628;BME280;10473;42.734;24.258;2023-07-30T00:27:34;91832.63;;;21.10;53.13
20628;BME280;10473;42.734;24.258;2023-07-30T00:30:04;91839.13;;;21.12;53.05
20628;BME280;10473;42.734;24.258;2023-07-30T00:32:32;91839.13;;;21.12;53.15
20628;BME280;10473;42.734;24.258;2023-07-30T00:35:00;91829.94;;;21.10;52.92
20628;BME280;10473;42.734;24.258;2023-07-30T00:37:28;91829.84;;;21.01;53.68
20628;BME280;10473;42.734;24.258;2023-07-30T00:39:55;91836.19;;;21.07;52.99
20628;BME280;10473;42.734;24.258;2023-07-30T00:42:23;91833.94;;;21.05;53.25
20628;BME280;10473;42.734;24.258;2023-07-30T00:44:51;91829.19;;;21.09;53.38
20628;BME280;10473;42.734;24.258;2023-07-30T00:47:21;91825.19;;;21.01;53.35
20628;BME280;10473;42.734;24.258;2023-07-30T00:49:49;91834.03;;;21.02;53.54
20628;BME280;10473;42.734;24.258;2023-07-30T00:52:19;91823.69;;;21.00;53.54
20628;BME280;10473;42.734;24.258;2023-07-30T00:54:48;91826.34;;;20.88;54.01
20628;BME280;10473;42.734;24.258;2023-07-30T00:57:16;91825.81;;;20.80;54.38
20628;BME280;10473;42.734;24.258;2023-07-30T00:59:46;91829.28;;;20.81;54.03
20628;BME280;10473;42.734;24.258;2023-07-30T01:02:16;91820.84;;;20.79;54.38
20628;BME280;10473;42.734;24.258;2023-07-30T01:04:46;91817.31;;;20.82;54.21
20628;BME280;10473;42.734;24.258;2023-07-30T01:07:14;91817.84;;;20.77;54.50
20628;BME280;10473;42.734;24.258;2023-07-30T01:09:42;91823.22;;;20.77;54.64
20628;BME280;10473;42.734;24.258;2023-07-30T01:12:10;91830.53;;;20.76;54.75
20628;BME280;10473;42.734;24.258;2023-07-30T01:14:38;91822.56;;;20.73;54.59
20628;BME280;10473;42.734;24.258;2023-07-30T01:17:06;91818.34;;;20.59;54.93
20628;BME280;10473;42.734;24.258;2023-07-30T01:19:34;91822.88;;;20.62;54.80
20628;BME280;10473;42.734;24.258;2023-07-30T01:22:03;91827.09;;;20.63;54.89
20628;BME280;10473;42.734;24.258;2023-07-30T01:24:31;91826.44;;;20.59;54.84
20628;BME280;10473;42.734;24.258;2023-07-30T01:27:01;91820.41;;;20.55;55.40
20628;BME280;10473;42.734;24.258;2023-07-30T01:29:35;91819.31;;;20.53;55.13
20628;BME280;10473;42.734;24.258;2023-07-30T01:32:07;91821.75;;;20.47;55.25
20628;BME280;10473;42.734;24.258;2023-07-30T01:34:37;91821.22;;;20.40;55.10
20628;BME280;10473;42.734;24.258;2023-07-30T01:37:10;91818.22;;;20.38;55.30
20628;BME280;10473;42.734;24.258;2023-07-30T01:39:40;91814.59;;;20.28;56.05
20628;BME280;10473;42.734;24.258;2023-07-30T01:42:11;91807.81;;;20.24;55.78
20628;BME280;10473;42.734;24.258;2023-07-30T01:44:39;91823.97;;;20.24;55.71
20628;BME280;10473;42.734;24.258;2023-07-30T01:47:07;91814.50;;;20.19;55.35
20628;BME280;10473;42.734;24.258;2023-07-30T01:49:35;91814.41;;;20.23;55.47
20628;BME280;10473;42.734;24.258;2023-07-30T01:52:03;91820.09;;;20.25;55.61
20628;BME280;10473;42.734;24.258;2023-07-30T01:54:32;91822.25;;;20.30;55.57
20628;BME280;10473;42.734;24.258;2023-07-30T01:57:00;91809.34;;;20.25;55.65
20628;BME280;10473;42.734;24.258;2023-07-30T01:59:27;91821.81;;;20.19;56.45
20628;BME280;10473;42.734;24.258;2023-07-30T02:01:55;91820.88;;;20.25;55.20
20628;BME280;10473;42.734;24.258;2023-07-30T02:04:23;91827.31;;;20.28;55.41
20628;BME280;10473;42.734;24.258;2023-07-30T02:06:50;91821.69;;;20.22;56.09
20628;BME280;10473;42.734;24.258;2023-07-30T02:09:18;91815.47;;;20.25;55.48
20628;BME280;10473;42.734;24.258;2023-07-30T02:11:48;91802.66;;;20.17;55.49
20628;BME280;10473;42.734;24.258;2023-07-30T02:14:15;91820.31;;;20.18;55.49
20628;BME280;10473;42.734;24.258;2023-07-30T02:16:43;91820.88;;;20.25;55.09
20628;BME280;10473;42.734;24.258;2023-07-30T02:19:11;91815.66;;;20.18;55.37
20628;BME280;10473;42.734;24.258;2023-07-30T02:21:40;91818.97;;;20.10;56.84
20628;BME280;10473;42.734;24.258;2023-07-30T02:24:09;91828.91;;;20.13;55.72
20628;BME280;10473;42.734;24.258;2023-07-30T02:26:38;91818.13;;;20.13;55.68
20628;BME280;10473;42.734;24.258;2023-07-30T02:29:07;91822.31;;;20.14;55.51
20628;BME280;10473;42.734;24.258;2023-07-30T02:31:35;91810.47;;;20.11;55.58
20628;BME280;10473;42.734;24.258;2023-07-30T02:34:02;91826.63;;;20.11;55.37
20628;BME280;10473;42.734;24.258;2023-07-30T02:36:30;91821.56;;;20.13;55.19
20628;BME280;10473;42.734;24.258;2023-07-30T02:38:58;91820.66;;;20.04;55.96
20628;BME280;10473;42.734;24.258;2023-07-30T02:41:26;91814.59;;;20.00;55.93
20628;BME280;10473;42.734;24.258;2023-07-30T02:43:53;91808.66;;;19.92;55.49
20628;BME280;10473;42.734;24.258;2023-07-30T02:46:22;91819.47;;;20.05;55.10
20628;BME280;10473;42.734;24.258;2023-07-30T02:48:50;91821.72;;;20.06;55.25
20628;BME280;10473;42.734;24.258;2023-07-30T02:51:18;91815.28;;;20.04;55.53
20628;BME280;10473;42.734;24.258;2023-07-30T02:53:45;91825.13;;;20.10;55.01
20628;BME280;10473;42.734;24.258;2023-07-30T02:56:16;91822.16;;;20.05;55.24
20628;BME280;10473;42.734;24.258;2023-07-30T02:58:44;91822.16;;;20.05;55.62
20628;BME280;10473;42.734;24.258;2023-07-30T03:01:11;91828.06;;;20.00;55.88
20628;BME280;10473;42.734;24.258;2023-07-30T03:03:40;91831.41;;;20.04;55.01
20628;BME280;10473;42.734;24.258;2023-07-30T03:06:08;91832.91;;;20.05;55.49
20628;BME280;10473;42.734;24.258;2023-07-30T03:08:36;91827.22;;;20.03;55.55
20628;BME280;10473;42.734;24.258;2023-07-30T03:11:05;91836.47;;;20.02;55.49
20628;BME280;10473;42.734;24.258;2023-07-30T03:13:32;91835.28;;;20.03;55.43
20628;BME280;10473;42.734;24.258;2023-07-30T03:16:00;91830.94;;;19.93;55.84
20628;BME280;10473;42.734;24.258;2023-07-30T03:18:28;91835.38;;;19.99;55.31
20628;BME280;10473;42.734;24.258;2023-07-30T03:20:59;91821.22;;;19.83;55.79
20628;BME280;10473;42.734;24.258;2023-07-30T03:23:27;91819.47;;;19.76;56.02
20628;BME280;10473;42.734;24.258;2023-07-30T03:25:55;91834.81;;;19.92;55.94
20628;BME280;10473;42.734;24.258;2023-07-30T03:28:23;91833.63;;;19.93;55.94
20628;BME280;10473;42.734;24.258;2023-07-30T03:30:52;91834.88;;;19.88;55.83
20628;BME280;10473;42.734;24.258;2023-07-30T03:33:20;91835.66;;;19.89;55.72
20628;BME280;10473;42.734;24.258;2023-07-30T03:35:48;91839.38;;;19.79;56.18
20628;BME280;10473;42.734;24.258;2023-07-30T03:38:17;91837.19;;;19.74;56.91
20628;BME280;10473;42.734;24.258;2023-07-30T03:40:44;91828.53;;;19.82;55.71
20628;BME280;10473;42.734;24.258;2023-07-30T03:43:12;91834.50;;;19.74;56.82
20628;BME280;10473;42.734;24.258;2023-07-30T03:45:40;91836.69;;;19.79;56.03
20628;BME280;10473;42.734;24.258;2023-07-30T03:48:07;91838.19;;;19.80;56.43
20628;BME280;10473;42.734;24.258;2023-07-30T03:50:35;91837.41;;;19.79;56.35
20628;BME280;10473;42.734;24.258;2023-07-30T03:53:03;91843.97;;;19.78;56.88
20628;BME280;10473;42.734;24.258;2023-07-30T03:55:32;91840.03;;;19.83;56.51
20628;BME280;10473;42.734;24.258;2023-07-30T03:58:00;91837.66;;;19.85;56.75
20628;BME280;10473;42.734;24.258;2023-07-30T04:00:28;91838.03;;;19.87;56.89
20628;BME280;10473;42.734;24.258;2023-07-30T04:02:55;91834.81;;;19.92;56.69
20628;BME280;10473;42.734;24.258;2023-07-30T04:05:23;91835.47;;;19.96;56.67
20628;BME280;10473;42.734;24.258;2023-07-30T04:07:51;91840.00;;;19.99;56.42
20628;BME280;10473;42.734;24.258;2023-07-30T04:10:19;91840.31;;;20.01;56.45
20628;BME280;10473;42.734;24.258;2023-07-30T04:12:48;91843.69;;;20.05;56.44
20628;BME280;10473;42.734;24.258;2023-07-30T04:15:16;91841.16;;;20.14;56.90
20628;BME280;10473;42.734;24.258;2023-07-30T04:17:43;91845.75;;;20.29;56.93
20628;BME280;10473;42.734;24.258;2023-07-30T04:20:11;91851.72;;;20.49;56.78
20628;BME280;10473;42.734;24.258;2023-07-30T04:22:39;91839.56;;;20.70;56.89
20628;BME280;10473;42.734;24.258;2023-07-30T04:25:08;91839.63;;;20.95;56.54
20628;BME280;10473;42.734;24.258;2023-07-30T04:27:36;91857.53;;;21.39;55.23
20628;BME280;10473;42.734;24.258;2023-07-30T04:30:07;91859.25;;;21.70;55.57
20628;BME280;10473;42.734;24.258;2023-07-30T04:32:35;91853.22;;;22.00;54.11
20628;BME280;10473;42.734;24.258;2023-07-30T04:35:03;91851.25;;;22.13;52.76
20628;BME280;10473;42.734;24.258;2023-07-30T04:37:31;91852.78;;;22.36;53.09
20628;BME280;10473;42.734;24.258;2023-07-30T04:39:59;91860.59;;;22.77;52.31
20628;BME280;10473;42.734;24.258;2023-07-30T04:42:30;91864.81;;;23.08;50.47
20628;BME280;10473;42.734;24.258;2023-07-30T04:44:58;91869.94;;;23.37;50.55
20628;BME280;10473;42.734;24.258;2023-07-30T04:47:27;91864.03;;;23.69;50.67
20628;BME280;10473;42.734;24.258;2023-07-30T04:49:55;91863.22;;;23.99;49.20
20628;BME280;10473;42.734;24.258;2023-07-30T04:52:22;91863.13;;;24.29;49.30
20628;BME280;10473;42.734;24.258;2023-07-30T04:54:50;91848.81;;;24.56;48.10
20628;BME280;10473;42.734;24.258;2023-07-30T04:57:18;91859.91;;;24.94;47.96
20628;BME280;10473;42.734;24.258;2023-07-30T04:59:45;91863.19;;;25.16;46.90
20628;BME280;10473;42.734;24.258;2023-07-30T05:02:13;91872.63;;;25.48;48.02
20628;BME280;10473;42.734;24.258;2023-07-30T05:04:42;91868.28;;;25.74;46.97
20628;BME280;10473;42.734;24.258;2023-07-30T05:07:10;91867.13;;;25.98;47.26
20628;BME280;10473;42.734;24.258;2023-07-30T05:09:38;91878.84;;;26.28;46.93
20628;BME280;10473;42.734;24.258;2023-07-30T05:12:06;91874.03;;;26.46;46.21
20628;BME280;10473;42.734;24.258;2023-07-30T05:14:34;91877.28;;;26.59;45.06
20628;BME280;10473;42.734;24.258;2023-07-30T05:17:02;91876.38;;;26.77;45.25
20628;BME280;10473;42.734;24.258;2023-07-30T05:19:30;91887.31;;;26.91;44.86
20628;BME280;10473;42.734;24.258;2023-07-30T05:21:59;91884.13;;;27.07;44.42
20628;BME280;10473;42.734;24.258;2023-07-30T05:24:28;91882.47;;;27.24;44.12
20628;BME280;10473;42.734;24.258;2023-07-30T05:26:55;91883.19;;;27.39;42.86
20628;BME280;10473;42.734;24.258;2023-07-30T05:29:23;91885.47;;;27.55;43.39
20628;BME280;10473;42.734;24.258;2023-07-30T05:31:51;91882.50;;;27.73;41.24
20628;BME280;10473;42.734;24.258;2023-07-30T05:34:18;91882.69;;;27.84;39.59
20628;BME280;10473;42.734;24.258;2023-07-30T05:36:46;91886.50;;;28.07;40.13
20628;BME280;10473;42.734;24.258;2023-07-30T05:39:15;91889.44;;;28.23;41.61
20628;BME280;10473;42.734;24.258;2023-07-30T05:41:43;91885.78;;;28.26;39.44
20628;BME280;10473;42.734;24.258;2023-07-30T05:44:11;91885.38;;;28.33;39.32
20628;BME280;10473;42.734;24.258;2023-07-30T05:46:38;91886.25;;;28.39;38.96
20628;BME280;10473;42.734;24.258;2023-07-30T05:49:06;91896.47;;;28.64;42.46
20628;BME280;10473;42.734;24.258;2023-07-30T05:51:34;91883.50;;;28.59;39.75
20628;BME280;10473;42.734;24.258;2023-07-30T05:54:01;91895.13;;;28.80;39.04
20628;BME280;10473;42.734;24.258;2023-07-30T05:56:30;91891.78;;;28.90;40.01
20628;BME280;10473;42.734;24.258;2023-07-30T05:58:59;91893.28;;;28.91;38.34
20628;BME280;10473;42.734;24.258;2023-07-30T06:01:26;91895.47;;;29.07;40.85
20628;BME280;10473;42.734;24.258;2023-07-30T06:03:54;91896.00;;;29.11;38.25
20628;BME280;10473;42.734;24.258;2023-07-30T06:06:22;91891.88;;;29.21;38.43
20628;BME280;10473;42.734;24.258;2023-07-30T06:08:54;91889.16;;;29.21;37.87
20628;BME280;10473;42.734;24.258;2023-07-30T06:11:24;91892.03;;;29.38;41.04
20628;BME280;10473;42.734;24.258;2023-07-30T06:13:54;91886.69;;;29.49;38.20
20628;BME280;10473;42.734;24.258;2023-07-30T06:16:21;91888.94;;;29.50;38.81
20628;BME280;10473;42.734;24.258;2023-07-30T06:18:49;91893.31;;;29.68;40.03
20628;BME280;10473;42.734;24.258;2023-07-30T06:21:17;91898.94;;;29.84;38.85
20628;BME280;10473;42.734;24.258;2023-07-30T06:23:44;91892.09;;;30.05;39.41
20628;BME280;10473;42.734;24.258;2023-07-30T06:26:12;91893.69;;;30.12;37.36
20628;BME280;10473;42.734;24.258;2023-07-30T06:28:40;91896.75;;;30.25;38.53
20628;BME280;10473;42.734;24.258;2023-07-30T06:31:09;91903.31;;;30.44;39.68
20628;BME280;10473;42.734;24.258;2023-07-30T06:33:36;91897.16;;;30.54;36.43
20628;BME280;10473;42.734;24.258;2023-07-30T06:36:04;91887.25;;;30.62;37.10
20628;BME280;10473;42.734;24.258;2023-07-30T06:38:32;91892.53;;;30.77;36.63
20628;BME280;10473;42.734;24.258;2023-07-30T06:40:59;91883.84;;;30.78;37.14
20628;BME280;10473;42.734;24.258;2023-07-30T06:43:27;91890.38;;;30.44;37.11
20628;BME280;10473;42.734;24.258;2023-07-30T06:45:55;91894.22;;;30.63;36.22
20628;BME280;10473;42.734;24.258;2023-07-30T06:48:24;91895.28;;;30.71;36.47
20628;BME280;10473;42.734;24.258;2023-07-30T06:50:52;91887.25;;;30.62;37.67
20628;BME280;10473;42.734;24.258;2023-07-30T06:53:19;91889.28;;;30.67;39.38
20628;BME280;10473;42.734;24.258;2023-07-30T06:55:47;91887.31;;;30.73;38.70
20628;BME280;10473;42.734;24.258;2023-07-30T06:58:15;91880.44;;;30.41;35.92
20628;BME280;10473;42.734;24.258;2023-07-30T07:00:42;91887.19;;;30.51;36.87
20628;BME280;10473;42.734;24.258;2023-07-30T07:03:10;91883.25;;;30.63;35.64
20628;BME280;10473;42.734;24.258;2023-07-30T07:05:39;91874.91;;;30.83;36.81
20628;BME280;10473;42.734;24.258;2023-07-30T07:08:07;91873.72;;;30.95;33.71
20628;BME280;10473;42.734;24.258;2023-07-30T07:10:34;91869.00;;;31.01;37.21
20628;BME280;10473;42.734;24.258;2023-07-30T07:13:02;91875.53;;;30.56;34.94
20628;BME280;10473;42.734;24.258;2023-07-30T07:15:30;91861.28;;;30.41;33.45
20628;BME280;10473;42.734;24.258;2023-07-30T07:17:57;91867.81;;;30.60;36.88
20628;BME280;10473;42.734;24.258;2023-07-30T07:20:25;91869.66;;;30.74;36.58
20628;BME280;10473;42.734;24.258;2023-07-30T07:22:54;91865.13;;;30.66;34.62
20628;BME280;10473;42.734;24.258;2023-07-30T07:25:25;91870.50;;;30.44;34.39
20628;BME280;10473;42.734;24.258;2023-07-30T07:27:52;91857.25;;;30.31;35.50
20628;BME280;10473;42.734;24.258;2023-07-30T07:30:20;91862.16;;;30.16;35.30
20628;BME280;10473;42.734;24.258;2023-07-30T07:32:48;91855.16;;;30.15;34.98
20628;BME280;10473;42.734;24.258;2023-07-30T07:35:18;91855.00;;;30.30;37.45
20628;BME280;10473;42.734;24.258;2023-07-30T07:37:46;91854.25;;;30.29;36.01
20628;BME280;10473;42.734;24.258;2023-07-30T07:40:16;91850.56;;;30.38;35.08
20628;BME280;10473;42.734;24.258;2023-07-30T07:42:43;91846.38;;;30.42;34.58
20628;BME280;10473;42.734;24.258;2023-07-30T07:45:11;91860.03;;;30.42;36.36
20628;BME280;10473;42.734;24.258;2023-07-30T07:47:39;91856.88;;;30.13;36.27
20628;BME280;10473;42.734;24.258;2023-07-30T07:50:07;91846.88;;;30.46;34.11
20628;BME280;10473;42.734;24.258;2023-07-30T07:52:37;91848.81;;;30.40;33.88
20628;BME280;10473;42.734;24.258;2023-07-30T07:55:07;91852.41;;;30.57;34.05
20628;BME280;10473;42.734;24.258;2023-07-30T07:57:36;91853.97;;;30.69;32.59
20628;BME280;10473;42.734;24.258;2023-07-30T08:00:08;91837.97;;;30.51;32.20
20628;BME280;10473;42.734;24.258;2023-07-30T08:02:41;91843.38;;;30.46;33.56
20628;BME280;10473;42.734;24.258;2023-07-30T08:05:09;91832.13;;;30.80;35.34
20628;BME280;10473;42.734;24.258;2023-07-30T08:07:36;91830.88;;;30.28;33.09
20628;BME280;10473;42.734;24.258;2023-07-30T08:10:07;91833.38;;;30.26;33.70
20628;BME280;10473;42.734;24.258;2023-07-30T08:12:36;91837.97;;;30.51;33.45
20628;BME280;10473;42.734;24.258;2023-07-30T08:15:04;91841.06;;;30.75;35.21
20628;BME280;10473;42.734;24.258;2023-07-30T08:17:32;91833.88;;;30.89;31.73
20628;BME280;10473;42.734;24.258;2023-07-30T08:20:02;91822.22;;;31.10;33.16
20628;BME280;10473;42.734;24.258;2023-07-30T08:22:30;91829.22;;;31.22;33.24
20628;BME280;10473;42.734;24.258;2023-07-30T08:24:58;91832.91;;;30.97;32.39
20628;BME280;10473;42.734;24.258;2023-07-30T08:27:25;91835.72;;;31.30;31.59
20628;BME280;10473;42.734;24.258;2023-07-30T08:29:54;91816.53;;;31.52;32.92
20628;BME280;10473;42.734;24.258;2023-07-30T08:32:23;91818.78;;;31.59;30.56
20628;BME280;10473;42.734;24.258;2023-07-30T08:34:51;91822.00;;;31.25;31.41
20628;BME280;10473;42.734;24.258;2023-07-30T08:37:22;91813.06;;;31.46;32.59
20628;BME280;10473;42.734;24.258;2023-07-30T08:39:49;91798.03;;;30.92;33.55
20628;BME280;10473;42.734;24.258;2023-07-30T08:42:18;91796.56;;;31.13;34.39
20628;BME280;10473;42.734;24.258;2023-07-30T08:44:46;91805.28;;;30.95;32.72
20628;BME280;10473;42.734;24.258;2023-07-30T08:47:15;91796.25;;;30.78;33.69
20628;BME280;10473;42.734;24.258;2023-07-30T08:49:43;91803.75;;;30.83;31.75
20628;BME280;10473;42.734;24.258;2023-07-30T08:52:11;91803.97;;;30.69;32.85
20628;BME280;10473;42.734;24.258;2023-07-30T08:54:39;91795.19;;;30.59;33.09
20628;BME280;10473;42.734;24.258;2023-07-30T08:57:08;91795.28;;;30.23;32.55
20628;BME280;10473;42.734;24.258;2023-07-30T08:59:40;91791.63;;;29.89;33.54
20628;BME280;10473;42.734;24.258;2023-07-30T09:02:22;91793.78;;;29.74;33.12
20628;BME280;10473;42.734;24.258;2023-07-30T09:04:56;91787.63;;;29.48;34.71
20628;BME280;10473;42.734;24.258;2023-07-30T09:07:25;91791.13;;;29.54;33.77
20628;BME280;10473;42.734;24.258;2023-07-30T09:09:53;91792.22;;;29.62;35.04
20628;BME280;10473;42.734;24.258;2023-07-30T09:12:26;91786.94;;;29.95;32.94
20628;BME280;10473;42.734;24.258;2023-07-30T09:14:54;91783.06;;;30.13;33.56
20628;BME280;10473;42.734;24.258;2023-07-30T09:17:23;91783.03;;;30.07;32.10
20628;BME280;10473;42.734;24.258;2023-07-30T09:19:54;91787.16;;;30.39;32.05
20628;BME280;10473;42.734;24.258;2023-07-30T09:22:25;91791.53;;;30.73;32.23
20628;BME280;10473;42.734;24.258;2023-07-30T09:24:54;91783.59;;;30.86;31.95
20628;BME280;10473;42.734;24.258;2023-07-30T09:27:24;91779.13;;;31.11;32.00
20628;BME280;10473;42.734;24.258;2023-07-30T09:29:53;91769.72;;;31.28;31.28
20628;BME280;10473;42.734;24.258;2023-07-30T09:32:27;91779.44;;;31.51;32.89
20628;BME280;10473;42.734;24.258;2023-07-30T09:34:54;91767.22;;;31.74;31.10
20628;BME280;10473;42.734;24.258;2023-07-30T09:37:22;91768.47;;;31.84;31.09
20628;BME280;10473;42.734;24.258;2023-07-30T09:39:50;91765.47;;;31.16;30.44
20628;BME280;10473;42.734;24.258;2023-07-30T09:42:19;91759.97;;;31.00;31.21
20628;BME280;10473;42.734;24.258;2023-07-30T09:44:47;91752.50;;;31.11;31.84
20628;BME280;10473;42.734;24.258;2023-07-30T09:47:15;91756.00;;;31.06;32.23
20628;BME280;10473;42.734;24.258;2023-07-30T09:49:44;91758.00;;;31.33;32.20
20628;BME280;10473;42.734;24.258;2023-07-30T09:52:13;91754.50;;;31.11;31.22
20628;BME280;10473;42.734;24.258;2023-07-30T09:54:41;91757.22;;;30.89;31.77
20628;BME280;10473;42.734;24.258;2023-07-30T09:57:09;91735.59;;;30.85;30.92
20628;BME280;10473;42.734;24.258;2023-07-30T09:59:37;91750.97;;;30.66;31.81
20628;BME280;10473;42.734;24.258;2023-07-30T10:02:05;91740.03;;;30.88;31.94
20628;BME280;10473;42.734;24.258;2023-07-30T10:04:36;91731.56;;;30.81;31.74
20628;BME280;10473;42.734;24.258;2023-07-30T10:07:14;91738.78;;;30.03;32.27
20628;BME280;10473;42.734;24.258;2023-07-30T10:09:45;91740.84;;;30.19;34.22
20628;BME280;10473;42.734;24.258;2023-07-30T10:12:21;91731.25;;;29.93;32.37
20628;BME280;10473;42.734;24.258;2023-07-30T10:14:50;91732.66;;;30.19;31.91
20628;BME280;10473;42.734;24.258;2023-07-30T10:17:18;91734.50;;;30.61;31.99
20628;BME280;10473;42.734;24.258;2023-07-30T10:19:47;91727.09;;;30.83;32.02
20628;BME280;10473;42.734;24.258;2023-07-30T10:22:26;91724.63;;;30.96;30.66
20628;BME280;10473;42.734;24.258;2023-07-30T10:24:57;91722.91;;;31.21;31.85
20628;BME280;10473;42.734;24.258;2023-07-30T10:27:26;91717.91;;;30.81;31.11
20628;BME280;10473;42.734;24.258;2023-07-30T10:30:14;91712.19;;;31.17;31.52
20628;BME280;10473;42.734;24.258;2023-07-30T10:32:58;91716.94;;;31.28;31.68
20628;BME280;10473;42.734;24.258;2023-07-30T10:35:37;91713.91;;;31.64;31.97
20628;BME280;10473;42.734;24.258;2023-07-30T10:38:17;91713.09;;;31.91;30.42
20628;BME280;10473;42.734;24.258;2023-07-30T10:41:05;91709.78;;;32.09;31.06
20628;BME280;10473;42.734;24.258;2023-07-30T10:43:35;91717.69;;;32.24;30.14
20628;BME280;10473;42.734;24.258;2023-07-30T10:46:04;91711.47;;;32.34;29.94
20628;BME280;10473;42.734;24.258;2023-07-30T10:48:33;91717.38;;;32.49;29.68
20628;BME280;10473;42.734;24.258;2023-07-30T10:51:05;91702.78;;;32.65;30.60
20628;BME280;10473;42.734;24.258;2023-07-30T10:53:34;91705.47;;;32.82;28.87
20628;BME280;10473;42.734;24.258;2023-07-30T10:56:07;91712.91;;;32.87;28.26
20628;BME280;10473;42.734;24.258;2023-07-30T10:58:35;91703.88;;;32.92;28.54
20628;BME280;10473;42.734;24.258;2023-07-30T11:01:04;91706.31;;;33.01;28.85
20628;BME280;10473;42.734;24.258;2023-07-30T11:03:32;91710.53;;;33.07;29.54
20628;BME280;10473;42.734;24.258;2023-07-30T11:06:01;91705.03;;;33.07;29.13
20628;BME280;10473;42.734;24.258;2023-07-30T11:08:37;91698.13;;;32.95;29.70
20628;BME280;10473;42.734;24.258;2023-07-30T11:11:07;91696.44;;;32.87;29.34
20628;BME280;10473;42.734;24.258;2023-07-30T11:13:35;91692.78;;;32.68;29.04
20628;BME280;10473;42.734;24.258;2023-07-30T11:16:04;91682.41;;;32.50;30.00
20628;BME280;10473;42.734;24.258;2023-07-30T11:18:32;91686.00;;;32.39;28.37
20628;BME280;10473;42.734;24.258;2023-07-30T11:21:04;91691.47;;;32.39;31.31
20628;BME280;10473;42.734;24.258;2023-07-30T11:23:32;91687.94;;;32.44;29.03
20628;BME280;10473;42.734;24.258;2023-07-30T11:26:02;91685.91;;;32.50;28.06
20628;BME280;10473;42.734;24.258;2023-07-30T11:28:31;91687.91;;;32.50;26.79
20628;BME280;10473;42.734;24.258;2023-07-30T11:31:00;91675.25;;;32.41;26.99
20628;BME280;10473;42.734;24.258;2023-07-30T11:33:28;91683.00;;;32.37;28.39
20628;BME280;10473;42.734;24.258;2023-07-30T11:35:57;91681.28;;;32.34;29.62
20628;BME280;10473;42.734;24.258;2023-07-30T11:38:25;91684.53;;;32.33;29.79
20628;BME280;10473;42.734;24.258;2023-07-30T11:40:54;91677.53;;;32.32;29.25
20628;BME280;10473;42.734;24.258;2023-07-30T11:43:24;91677.56;;;32.26;29.88
20628;BME280;10473;42.734;24.258;2023-07-30T11:46:06;91658.38;;;32.26;30.35
20628;BME280;10473;42.734;24.258;2023-07-30T11:48:35;91665.84;;;32.20;28.74
20628;BME280;10473;42.734;24.258;2023-07-30T11:51:03;91661.69;;;32.08;29.67
20628;BME280;10473;42.734;24.258;2023-07-30T11:53:50;91659.44;;;32.07;29.06
20628;BME280;10473;42.734;24.258;2023-07-30T11:56:20;91658.25;;;31.91;28.59
20628;BME280;10473;42.734;24.258;2023-07-30T11:58:53;91646.34;;;31.72;30.32
20628;BME280;10473;42.734;24.258;2023-07-30T12:01:23;91652.78;;;31.91;29.49
20628;BME280;10473;42.734;24.258;2023-07-30T12:03:54;91645.84;;;31.68;29.33
20628;BME280;10473;42.734;24.258;2023-07-30T12:06:22;91643.88;;;31.63;29.26
20628;BME280;10473;42.734;24.258;2023-07-30T12:08:50;91645.16;;;31.46;30.02
20628;BME280;10473;42.734;24.258;2023-07-30T12:11:18;91644.13;;;31.76;29.73
20628;BME280;10473;42.734;24.258;2023-07-30T12:13:47;91633.81;;;31.93;28.04
20628;BME280;10473;42.734;24.258;2023-07-30T12:16:17;91639.00;;;32.08;28.39
20628;BME280;10473;42.734;24.258;2023-07-30T12:18:45;91639.22;;;32.10;28.85
20628;BME280;10473;42.734;24.258;2023-07-30T12:21:13;91631.19;;;32.23;28.62
20628;BME280;10473;42.734;24.258;2023-07-30T12:23:41;91624.66;;;32.31;28.28
20628;BME280;10473;42.734;24.258;2023-07-30T12:26:09;91625.06;;;32.46;28.71
20628;BME280;10473;42.734;24.258;2023-07-30T12:28:37;91629.53;;;32.49;28.22
20628;BME280;10473;42.734;24.258;2023-07-30T12:31:04;91621.50;;;32.57;28.39
20628;BME280;10473;42.734;24.258;2023-07-30T12:33:34;91618.97;;;32.64;28.34
20628;BME280;10473;42.734;24.258;2023-07-30T12:36:01;91621.59;;;32.75;29.10
20628;BME280;10473;42.734;24.258;2023-07-30T12:38:29;91619.66;;;32.70;27.51
20628;BME280;10473;42.734;24.258;2023-07-30T12:40:57;91619.25;;;32.90;28.01
20628;BME280;10473;42.734;24.258;2023-07-30T12:43:26;91611.47;;;33.00;28.28
20628;BME280;10473;42.734;24.258;2023-07-30T12:45:53;91613.13;;;33.08;27.42
20628;BME280;10473;42.734;24.258;2023-07-30T12:48:21;91606.03;;;33.18;27.74
20628;BME280;10473;42.734;24.258;2023-07-30T12:50:50;91604.69;;;33.30;28.51
20628;BME280;10473;42.734;24.258;2023-07-30T12:53:18;91603.78;;;33.46;27.87
20628;BME280;10473;42.734;24.258;2023-07-30T12:55:46;91603.31;;;33.42;28.05
20628;BME280;10473;42.734;24.258;2023-07-30T12:58:13;91598.78;;;33.45;27.94